createdAt,value
2022-12-26T00:00:21.487Z,10.63
2022-12-26T00:01:21.412Z,10.63
2022-12-26T00:02:21.478Z,10.63
2022-12-26T00:03:21.521Z,10.62
2022-12-26T00:04:50.839Z,10.62
2022-12-26T00:05:21.514Z,10.63
2022-12-26T00:06:21.429Z,10.63
2022-12-26T00:07:21.404Z,10.63
2022-12-26T00:08:21.420Z,10.61
2022-12-26T00:09:21.404Z,10.61
2022-12-26T00:10:21.672Z,10.61
2022-12-26T00:11:21.412Z,10.62
2022-12-26T00:12:21.409Z,10.61
2022-12-26T00:13:38.332Z,10.61
2022-12-26T00:14:21.435Z,10.60
2022-12-26T00:15:21.450Z,10.60
2022-12-26T00:16:21.548Z,10.61
2022-12-26T00:17:21.424Z,10.63
2022-12-26T00:18:21.404Z,10.62
2022-12-26T00:19:21.435Z,10.61
2022-12-26T00:20:21.453Z,10.62
2022-12-26T00:21:21.443Z,10.62
2022-12-26T00:22:21.429Z,10.60
2022-12-26T00:23:21.436Z,10.59
2022-12-26T00:24:21.443Z,10.59
2022-12-26T00:25:21.502Z,10.57
2022-12-26T00:26:21.423Z,10.59
2022-12-26T00:27:21.420Z,10.59
2022-12-26T00:28:21.441Z,10.59
2022-12-26T00:29:21.414Z,10.60
2022-12-26T00:30:21.459Z,10.57
2022-12-26T00:31:21.510Z,10.55
2022-12-26T00:32:21.468Z,10.56
2022-12-26T00:33:21.462Z,10.54
2022-12-26T00:34:21.435Z,10.55
2022-12-26T00:35:21.487Z,10.53
2022-12-26T00:36:21.460Z,10.54
2022-12-26T00:37:21.432Z,10.54
2022-12-26T00:38:21.453Z,10.52
2022-12-26T00:39:21.473Z,10.51
2022-12-26T00:40:21.460Z,10.51
2022-12-26T00:41:21.503Z,10.49
2022-12-26T00:42:21.461Z,10.50
2022-12-26T00:43:21.455Z,10.49
2022-12-26T00:44:21.495Z,10.48
2022-12-26T00:45:21.436Z,10.47
2022-12-26T00:46:21.513Z,10.47
2022-12-26T00:47:21.518Z,10.49
2022-12-26T00:48:21.462Z,10.49
2022-12-26T00:49:21.522Z,10.49
2022-12-26T00:50:21.462Z,10.51
2022-12-26T00:51:21.499Z,10.53
2022-12-26T00:52:21.478Z,10.54
2022-12-26T00:53:21.479Z,10.54
2022-12-26T00:54:21.476Z,10.55
2022-12-26T00:55:21.440Z,10.57
2022-12-26T00:56:21.486Z,10.58
2022-12-26T00:57:21.445Z,10.59
2022-12-26T00:58:21.487Z,10.61
2022-12-26T00:59:21.476Z,10.61
2022-12-26T01:00:21.470Z,10.64
2022-12-26T01:01:21.608Z,10.63
2022-12-26T01:02:21.624Z,10.62
2022-12-26T01:03:21.566Z,10.63
2022-12-26T01:04:21.465Z,10.63
2022-12-26T01:05:21.484Z,10.64
2022-12-26T01:06:21.516Z,10.62
2022-12-26T01:07:21.509Z,10.63
2022-12-26T01:08:24.563Z,10.65
2022-12-26T01:09:21.489Z,10.66
2022-12-26T01:10:21.462Z,10.65
2022-12-26T01:11:21.466Z,10.66
2022-12-26T01:12:21.506Z,10.65
2022-12-26T01:13:21.564Z,10.65
2022-12-26T01:14:21.513Z,10.65
2022-12-26T01:15:21.595Z,10.66
2022-12-26T01:16:21.516Z,10.66
2022-12-26T01:17:21.482Z,10.65
2022-12-26T01:18:21.491Z,10.65
2022-12-26T01:19:21.516Z,10.64
2022-12-26T01:20:21.520Z,10.63
2022-12-26T01:21:21.525Z,10.62
2022-12-26T01:22:21.503Z,10.61
2022-12-26T01:23:21.515Z,10.62
2022-12-26T01:24:21.535Z,10.64
2022-12-26T01:25:21.501Z,10.64
2022-12-26T01:26:21.481Z,10.65
2022-12-26T01:27:21.484Z,10.64
2022-12-26T01:28:21.482Z,10.63
2022-12-26T01:29:21.517Z,10.63
2022-12-26T01:30:21.515Z,10.63
2022-12-26T01:31:21.648Z,10.64
2022-12-26T01:32:21.512Z,10.63
2022-12-26T01:33:21.491Z,10.63
2022-12-26T01:34:21.564Z,10.63
2022-12-26T01:35:21.581Z,10.65
2022-12-26T01:36:21.518Z,10.65
2022-12-26T01:37:21.497Z,10.66
2022-12-26T01:38:21.585Z,10.66
2022-12-26T01:39:21.548Z,10.65
2022-12-26T01:40:21.511Z,10.64
2022-12-26T01:41:21.525Z,10.65
2022-12-26T01:42:21.492Z,10.65
2022-12-26T01:43:21.517Z,10.65
2022-12-26T01:44:21.539Z,10.67
2022-12-26T01:45:21.540Z,10.69
2022-12-26T01:46:21.584Z,10.68
2022-12-26T01:47:21.507Z,10.67
2022-12-26T01:48:21.517Z,10.68
2022-12-26T01:49:21.563Z,10.66
2022-12-26T01:50:21.544Z,10.65
2022-12-26T01:51:21.504Z,10.63
2022-12-26T01:52:21.527Z,10.62
2022-12-26T01:53:21.524Z,10.62
2022-12-26T01:54:38.487Z,10.60
2022-12-26T01:55:21.530Z,10.61
2022-12-26T01:56:21.512Z,10.60
2022-12-26T01:57:21.547Z,10.58
2022-12-26T01:58:21.524Z,10.57
2022-12-26T01:59:21.539Z,10.55
2022-12-26T02:00:21.560Z,10.55
2022-12-26T02:01:21.589Z,10.53
2022-12-26T02:02:21.718Z,10.53
2022-12-26T02:03:21.547Z,10.51
2022-12-26T02:04:21.552Z,10.49
2022-12-26T02:05:21.569Z,10.50
2022-12-26T02:06:21.523Z,10.49
2022-12-26T02:07:21.574Z,10.48
2022-12-26T02:08:21.571Z,10.46
2022-12-26T02:09:21.535Z,10.46
2022-12-26T02:10:21.549Z,10.48
2022-12-26T02:11:21.548Z,10.47
2022-12-26T02:12:36.437Z,10.47
2022-12-26T02:13:21.594Z,10.48
2022-12-26T02:14:21.531Z,10.47
2022-12-26T02:15:21.530Z,10.47
2022-12-26T02:16:21.591Z,10.46
2022-12-26T02:17:21.569Z,10.46
2022-12-26T02:18:21.529Z,10.47
2022-12-26T02:19:21.546Z,10.47
2022-12-26T02:20:21.561Z,10.48
2022-12-26T02:21:21.537Z,10.47
2022-12-26T02:22:21.578Z,10.47
2022-12-26T02:23:21.574Z,10.48
2022-12-26T02:24:21.575Z,10.49
2022-12-26T02:25:21.589Z,10.49
2022-12-26T02:26:21.538Z,10.52
2022-12-26T02:27:21.669Z,10.53
2022-12-26T02:28:21.571Z,10.53
2022-12-26T02:29:21.611Z,10.52
2022-12-26T02:30:21.590Z,10.51
2022-12-26T02:31:21.638Z,10.51
2022-12-26T02:32:21.586Z,10.53
2022-12-26T02:33:21.567Z,10.53
2022-12-26T02:34:21.580Z,10.55
2022-12-26T02:35:21.556Z,10.58
2022-12-26T02:36:21.551Z,10.57
2022-12-26T02:37:21.585Z,10.55
2022-12-26T02:38:21.595Z,10.58
2022-12-26T02:39:44.933Z,10.58
2022-12-26T02:40:21.593Z,10.58
2022-12-26T02:41:21.582Z,10.58
2022-12-26T02:42:21.563Z,10.55
2022-12-26T02:43:21.645Z,10.55
2022-12-26T02:44:21.583Z,10.53
2022-12-26T02:45:21.581Z,10.54
2022-12-26T02:46:21.612Z,10.55
2022-12-26T02:47:21.592Z,10.55
2022-12-26T02:48:21.623Z,10.57
2022-12-26T02:49:21.595Z,10.58
2022-12-26T02:50:21.587Z,10.58
2022-12-26T02:51:21.605Z,10.59
2022-12-26T02:52:21.630Z,10.59
2022-12-26T02:53:21.612Z,10.61
2022-12-26T02:54:21.605Z,10.62
2022-12-26T02:55:21.620Z,10.62
2022-12-26T02:56:21.589Z,10.65
2022-12-26T02:57:21.604Z,10.65
2022-12-26T02:58:21.604Z,10.65
2022-12-26T02:59:21.586Z,10.66
2022-12-26T03:00:21.612Z,10.67
2022-12-26T03:01:21.653Z,10.67
2022-12-26T03:02:21.760Z,10.67
2022-12-26T03:03:21.647Z,10.68
2022-12-26T03:04:21.622Z,10.70
2022-12-26T03:05:21.601Z,10.69
2022-12-26T03:06:21.596Z,10.70
2022-12-26T03:07:21.600Z,10.72
2022-12-26T03:08:21.594Z,10.72
2022-12-26T03:09:21.652Z,10.75
2022-12-26T03:10:21.672Z,10.74
2022-12-26T03:11:21.649Z,10.76
2022-12-26T03:12:21.624Z,10.75
2022-12-26T03:13:21.660Z,10.77
2022-12-26T03:14:21.623Z,10.77
2022-12-26T03:15:21.698Z,10.79
2022-12-26T03:16:21.714Z,10.79
2022-12-26T03:17:21.633Z,10.82
2022-12-26T03:18:57.788Z,10.82
2022-12-26T03:19:21.641Z,10.82
2022-12-26T03:20:21.682Z,10.82
2022-12-26T03:21:21.639Z,10.83
2022-12-26T03:22:21.681Z,10.84
2022-12-26T03:23:21.653Z,10.82
2022-12-26T03:24:21.651Z,10.83
2022-12-26T03:25:21.653Z,10.81
2022-12-26T03:26:21.633Z,10.82
2022-12-26T03:27:21.651Z,10.82
2022-12-26T03:28:21.647Z,10.82
2022-12-26T03:29:21.661Z,10.82
2022-12-26T03:30:21.679Z,10.83
2022-12-26T03:31:21.751Z,10.79
2022-12-26T03:32:21.697Z,10.78
2022-12-26T03:33:21.668Z,10.78
2022-12-26T03:34:21.646Z,10.76
2022-12-26T03:35:21.718Z,10.75
2022-12-26T03:36:21.676Z,10.74
2022-12-26T03:37:21.643Z,10.73
2022-12-26T03:38:21.676Z,10.73
2022-12-26T03:39:21.679Z,10.69
2022-12-26T03:40:21.708Z,10.68
2022-12-26T03:41:21.663Z,10.67
2022-12-26T03:42:21.667Z,10.63
2022-12-26T03:43:21.660Z,10.62
2022-12-26T03:44:21.675Z,10.60
2022-12-26T03:45:21.675Z,10.59
2022-12-26T03:46:21.714Z,10.57
2022-12-26T03:47:21.700Z,10.55
2022-12-26T03:48:21.704Z,10.53
2022-12-26T03:49:21.675Z,10.51
2022-12-26T03:50:21.681Z,10.49
2022-12-26T03:51:21.660Z,10.45
2022-12-26T03:52:21.678Z,10.40
2022-12-26T03:53:21.687Z,10.36
2022-12-26T03:54:21.670Z,10.31
2022-12-26T03:55:21.677Z,10.29
2022-12-26T03:56:21.701Z,10.29
2022-12-26T03:57:21.696Z,10.29
2022-12-26T03:58:21.676Z,10.29
2022-12-26T03:59:21.745Z,10.27
2022-12-26T04:00:21.694Z,10.28
2022-12-26T04:01:21.838Z,10.32
2022-12-26T04:02:21.795Z,10.35
2022-12-26T04:03:21.683Z,10.38
2022-12-26T04:04:21.687Z,10.42
2022-12-26T04:05:21.693Z,10.46
2022-12-26T04:06:21.717Z,10.48
2022-12-26T04:07:21.716Z,10.54
2022-12-26T04:08:21.687Z,10.60
2022-12-26T04:09:21.689Z,10.65
2022-12-26T04:10:21.706Z,10.69
2022-12-26T04:11:21.706Z,10.74
2022-12-26T04:12:21.688Z,10.77
2022-12-26T04:13:21.704Z,10.81
2022-12-26T04:14:21.741Z,10.84
2022-12-26T04:15:21.709Z,10.86
2022-12-26T04:16:21.802Z,10.88
2022-12-26T04:17:21.710Z,10.90
2022-12-26T04:18:21.726Z,10.93
2022-12-26T04:19:21.713Z,10.93
2022-12-26T04:20:21.724Z,10.94
2022-12-26T04:21:21.686Z,10.93
2022-12-26T04:22:21.692Z,10.93
2022-12-26T04:23:21.739Z,10.93
2022-12-26T04:24:21.720Z,10.92
2022-12-26T04:25:21.705Z,10.92
2022-12-26T04:26:21.728Z,10.93
2022-12-26T04:27:21.698Z,10.95
2022-12-26T04:28:21.709Z,10.97
2022-12-26T04:29:21.721Z,10.97
2022-12-26T04:30:21.710Z,10.99
2022-12-26T04:31:21.788Z,11.00
2022-12-26T04:32:21.708Z,11.03
2022-12-26T04:33:21.765Z,11.06
2022-12-26T04:34:21.744Z,11.08
2022-12-26T04:35:21.732Z,11.09
2022-12-26T04:36:21.703Z,11.11
2022-12-26T04:37:21.722Z,11.14
2022-12-26T04:38:21.709Z,11.17
2022-12-26T04:39:21.716Z,11.18
2022-12-26T04:40:21.772Z,11.19
2022-12-26T04:41:21.790Z,11.21
2022-12-26T04:42:21.736Z,11.23
2022-12-26T04:43:48.649Z,11.24
2022-12-26T04:44:21.738Z,11.25
2022-12-26T04:45:21.748Z,11.26
2022-12-26T04:46:21.817Z,11.27
2022-12-26T04:47:21.736Z,11.28
2022-12-26T04:48:21.739Z,11.28
2022-12-26T04:49:21.744Z,11.28
2022-12-26T04:50:21.739Z,11.28
2022-12-26T04:51:21.749Z,11.29
2022-12-26T04:52:21.733Z,11.28
2022-12-26T04:53:21.744Z,11.27
2022-12-26T04:54:21.743Z,11.26
2022-12-26T04:55:21.760Z,11.25
2022-12-26T04:56:21.762Z,11.25
2022-12-26T04:57:21.762Z,11.25
2022-12-26T04:58:21.758Z,11.25
2022-12-26T04:59:21.739Z,11.24
2022-12-26T05:00:21.772Z,11.23
2022-12-26T05:01:21.822Z,11.21
2022-12-26T05:02:21.870Z,11.19
2022-12-26T05:03:21.790Z,11.15
2022-12-26T05:04:21.758Z,11.14
2022-12-26T05:05:21.763Z,11.13
2022-12-26T05:06:21.763Z,11.12
2022-12-26T05:07:21.811Z,11.10
2022-12-26T05:08:21.764Z,11.09
2022-12-26T05:09:21.748Z,11.08
2022-12-26T05:10:21.757Z,11.07
2022-12-26T05:11:21.783Z,11.07
2022-12-26T05:12:21.766Z,11.07
2022-12-26T05:13:21.768Z,11.07
2022-12-26T05:14:21.763Z,11.05
2022-12-26T05:15:21.791Z,11.07
2022-12-26T05:16:21.809Z,11.05
2022-12-26T05:17:21.786Z,11.04
2022-12-26T05:18:21.765Z,11.03
2022-12-26T05:19:21.772Z,11.00
2022-12-26T05:20:21.754Z,10.99
2022-12-26T05:21:21.768Z,10.98
2022-12-26T05:22:21.767Z,10.98
2022-12-26T05:23:21.783Z,10.98
2022-12-26T05:24:21.772Z,10.97
2022-12-26T05:25:21.783Z,10.95
2022-12-26T05:26:21.777Z,10.93
2022-12-26T05:27:21.781Z,10.91
2022-12-26T05:28:21.780Z,10.92
2022-12-26T05:29:21.790Z,10.92
2022-12-26T05:30:21.773Z,10.91
2022-12-26T05:31:21.806Z,10.91
2022-12-26T05:32:21.802Z,10.90
2022-12-26T05:33:21.803Z,10.87
2022-12-26T05:34:21.786Z,10.83
2022-12-26T05:35:21.767Z,10.80
2022-12-26T05:36:21.801Z,10.76
2022-12-26T05:37:21.805Z,10.74
2022-12-26T05:38:21.806Z,10.72
2022-12-26T05:39:21.790Z,10.66
2022-12-26T05:40:21.792Z,10.65
2022-12-26T05:41:21.808Z,10.62
2022-12-26T05:42:21.812Z,10.62
2022-12-26T05:43:21.876Z,10.64
2022-12-26T05:44:21.802Z,10.66
2022-12-26T05:45:21.838Z,10.69
2022-12-26T05:46:21.852Z,10.71
2022-12-26T05:47:21.802Z,10.72
2022-12-26T05:48:21.832Z,10.75
2022-12-26T05:49:21.791Z,10.74
2022-12-26T05:50:21.839Z,10.74
2022-12-26T05:51:21.821Z,10.73
2022-12-26T05:52:21.788Z,10.74
2022-12-26T05:53:21.827Z,10.75
2022-12-26T05:54:21.796Z,10.77
2022-12-26T05:55:21.821Z,10.79
2022-12-26T05:56:21.825Z,10.81
2022-12-26T05:57:21.819Z,10.79
2022-12-26T05:58:21.827Z,10.78
2022-12-26T05:59:21.809Z,10.78
2022-12-26T06:00:21.799Z,10.76
2022-12-26T06:01:21.853Z,10.76
2022-12-26T06:02:21.941Z,10.75
2022-12-26T06:03:21.963Z,10.74
2022-12-26T06:04:21.820Z,10.74
2022-12-26T06:05:21.845Z,10.73
2022-12-26T06:06:21.813Z,10.74
2022-12-26T06:07:21.810Z,10.74
2022-12-26T06:08:21.824Z,10.72
2022-12-26T06:09:21.857Z,10.69
2022-12-26T06:10:21.811Z,10.66
2022-12-26T06:11:21.851Z,10.63
2022-12-26T06:12:21.834Z,10.61
2022-12-26T06:13:21.811Z,10.59
2022-12-26T06:14:21.851Z,10.56
2022-12-26T06:15:21.819Z,10.54
2022-12-26T06:16:21.935Z,10.52
2022-12-26T06:17:21.843Z,10.50
2022-12-26T06:18:21.825Z,10.46
2022-12-26T06:19:21.853Z,10.44
2022-12-26T06:20:21.842Z,10.42
2022-12-26T06:21:21.856Z,10.39
2022-12-26T06:22:21.871Z,10.39
2022-12-26T06:23:22.116Z,10.40
2022-12-26T06:24:21.869Z,10.39
2022-12-26T06:25:21.848Z,10.39
2022-12-26T06:26:21.870Z,10.42
2022-12-26T06:27:21.850Z,10.47
2022-12-26T06:28:21.887Z,10.51
2022-12-26T06:29:21.849Z,10.55
2022-12-26T06:30:21.851Z,10.60
2022-12-26T06:31:21.952Z,10.64
2022-12-26T06:32:21.863Z,10.69
2022-12-26T06:33:21.868Z,10.70
2022-12-26T06:34:21.881Z,10.75
2022-12-26T06:35:21.920Z,10.81
2022-12-26T06:36:21.917Z,10.84
2022-12-26T06:37:21.949Z,10.90
2022-12-26T06:38:21.937Z,10.94
2022-12-26T06:39:21.951Z,10.96
2022-12-26T06:40:21.955Z,10.97
2022-12-26T06:41:21.988Z,10.97
2022-12-26T06:42:21.983Z,10.96
2022-12-26T06:43:22.006Z,10.95
2022-12-26T06:44:22.094Z,10.92
2022-12-26T06:45:22.026Z,10.93
2022-12-26T06:46:22.168Z,10.93
2022-12-26T06:47:22.048Z,10.94
2022-12-26T06:48:22.083Z,10.97
2022-12-26T06:49:26.204Z,10.98
2022-12-26T06:50:22.145Z,10.97
2022-12-26T06:51:22.195Z,10.97
2022-12-26T06:52:22.140Z,10.98
2022-12-26T06:53:22.163Z,10.94
2022-12-26T06:54:22.162Z,10.91
2022-12-26T06:55:22.144Z,10.87
2022-12-26T06:56:22.180Z,10.84
2022-12-26T06:57:22.155Z,10.82
2022-12-26T06:58:22.151Z,10.80
2022-12-26T06:59:22.176Z,10.77
2022-12-26T07:00:22.148Z,10.74
2022-12-26T07:01:22.331Z,10.71
2022-12-26T07:02:22.255Z,10.67
2022-12-26T07:03:22.163Z,10.64
2022-12-26T07:04:22.217Z,10.60
2022-12-26T07:05:22.196Z,10.54
2022-12-26T07:06:22.381Z,10.51
2022-12-26T07:07:22.183Z,10.45
2022-12-26T07:08:22.202Z,10.41
2022-12-26T07:09:22.172Z,10.37
2022-12-26T07:10:22.199Z,10.42
2022-12-26T07:11:22.200Z,10.46
2022-12-26T07:12:22.178Z,10.50
2022-12-26T07:13:22.186Z,10.52
2022-12-26T07:14:22.191Z,10.53
2022-12-26T07:15:22.186Z,10.52
2022-12-26T07:16:22.229Z,10.51
2022-12-26T07:17:22.212Z,10.50
2022-12-26T07:18:22.197Z,10.50
2022-12-26T07:19:22.177Z,10.50
2022-12-26T07:20:22.196Z,10.53
2022-12-26T07:21:22.204Z,10.56
2022-12-26T07:22:22.217Z,10.59
2022-12-26T07:23:22.193Z,10.65
2022-12-26T07:24:22.176Z,10.70
2022-12-26T07:25:22.236Z,10.72
2022-12-26T07:26:22.201Z,10.81
2022-12-26T07:27:22.223Z,10.87
2022-12-26T07:28:22.203Z,10.95
2022-12-26T07:29:22.222Z,11.03
2022-12-26T07:30:22.202Z,11.07
2022-12-26T07:31:22.216Z,11.12
2022-12-26T07:32:22.229Z,11.12
2022-12-26T07:33:22.242Z,11.09
2022-12-26T07:34:26.415Z,11.09
2022-12-26T07:35:22.195Z,11.10
2022-12-26T07:36:22.229Z,11.11
2022-12-26T07:37:22.217Z,11.09
2022-12-26T07:38:22.215Z,11.10
2022-12-26T07:39:22.237Z,11.06
2022-12-26T07:40:22.246Z,11.01
2022-12-26T07:41:22.227Z,10.98
2022-12-26T07:42:22.236Z,10.94
2022-12-26T07:43:22.234Z,10.89
2022-12-26T07:44:22.251Z,10.84
2022-12-26T07:45:22.264Z,10.83
2022-12-26T07:46:22.355Z,10.81
2022-12-26T07:47:22.245Z,10.80
2022-12-26T07:48:22.228Z,10.76
2022-12-26T07:49:22.247Z,10.71
2022-12-26T07:50:22.226Z,10.67
2022-12-26T07:51:22.243Z,10.61
2022-12-26T07:52:22.215Z,10.59
2022-12-26T07:53:22.222Z,10.51
2022-12-26T07:54:22.287Z,10.44
2022-12-26T07:55:22.235Z,10.38
2022-12-26T07:56:22.257Z,10.31
2022-12-26T07:57:47.472Z,10.27
2022-12-26T07:58:22.258Z,10.25
2022-12-26T07:59:22.273Z,10.22
2022-12-26T08:00:22.247Z,10.19
2022-12-26T08:01:22.409Z,10.11
2022-12-26T08:02:22.524Z,10.08
2022-12-26T08:03:22.325Z,10.01
2022-12-26T08:04:22.398Z,9.97
2022-12-26T08:05:22.261Z,9.93
2022-12-26T08:06:22.260Z,9.90
2022-12-26T08:07:22.250Z,9.89
2022-12-26T08:08:22.262Z,9.86
2022-12-26T08:09:22.303Z,9.82
2022-12-26T08:10:22.262Z,9.80
2022-12-26T08:11:22.325Z,9.74
2022-12-26T08:12:22.297Z,9.68
2022-12-26T08:13:22.294Z,9.66
2022-12-26T08:14:22.271Z,9.62
2022-12-26T08:15:22.331Z,9.61
2022-12-26T08:16:22.349Z,9.61
2022-12-26T08:17:22.343Z,9.62
2022-12-26T08:18:22.279Z,9.61
2022-12-26T08:19:22.272Z,9.60
2022-12-26T08:20:22.288Z,9.57
2022-12-26T08:21:22.315Z,9.55
2022-12-26T08:22:22.348Z,9.52
2022-12-26T08:23:22.275Z,9.51
2022-12-26T08:24:22.292Z,9.49
2022-12-26T08:25:22.392Z,9.44
2022-12-26T08:26:22.315Z,9.43
2022-12-26T08:27:22.321Z,9.41
2022-12-26T08:28:22.267Z,9.41
2022-12-26T08:29:22.268Z,9.40
2022-12-26T08:30:22.269Z,9.41
2022-12-26T08:31:22.385Z,9.41
2022-12-26T08:32:22.272Z,9.42
2022-12-26T08:33:22.271Z,9.42
2022-12-26T08:34:22.301Z,9.41
2022-12-26T08:35:22.289Z,9.41
2022-12-26T08:36:22.281Z,9.41
2022-12-26T08:37:22.281Z,9.42
2022-12-26T08:38:22.335Z,9.42
2022-12-26T08:39:22.302Z,9.43
2022-12-26T08:40:41.384Z,9.43
2022-12-26T08:41:22.306Z,9.44
2022-12-26T08:42:22.299Z,9.45
2022-12-26T08:43:39.191Z,9.45
2022-12-26T08:44:27.357Z,9.45
2022-12-26T08:45:22.310Z,9.45
2022-12-26T08:46:22.402Z,9.43
2022-12-26T08:47:22.287Z,9.43
2022-12-26T08:48:22.322Z,9.42
2022-12-26T08:49:22.290Z,9.43
2022-12-26T08:50:22.317Z,9.42
2022-12-26T08:51:22.332Z,9.45
2022-12-26T08:52:22.298Z,9.43
2022-12-26T08:53:22.289Z,9.45
2022-12-26T08:54:22.325Z,9.45
2022-12-26T08:55:22.287Z,9.45
2022-12-26T08:56:22.317Z,9.47
2022-12-26T08:57:22.295Z,9.47
2022-12-26T08:58:22.301Z,9.47
2022-12-26T08:59:22.296Z,9.46
2022-12-26T09:00:22.296Z,9.46
2022-12-26T09:01:22.424Z,9.48
2022-12-26T09:02:22.719Z,9.47
2022-12-26T09:03:22.377Z,9.51
2022-12-26T09:04:22.285Z,9.52
2022-12-26T09:05:22.324Z,9.52
2022-12-26T09:06:22.292Z,9.53
2022-12-26T09:07:22.315Z,9.53
2022-12-26T09:08:22.377Z,9.54
2022-12-26T09:09:22.314Z,9.54
2022-12-26T09:10:22.304Z,9.55
2022-12-26T09:11:22.362Z,9.57
2022-12-26T09:12:22.344Z,9.57
2022-12-26T09:13:22.432Z,9.58
2022-12-26T09:14:22.303Z,9.59
2022-12-26T09:15:22.356Z,9.59
2022-12-26T09:16:22.366Z,9.60
2022-12-26T09:17:22.426Z,9.61
2022-12-26T09:18:22.339Z,9.63
2022-12-26T09:19:22.359Z,9.63
2022-12-26T09:20:22.349Z,9.64
2022-12-26T09:21:22.361Z,9.65
2022-12-26T09:22:22.333Z,9.67
2022-12-26T09:23:22.337Z,9.75
2022-12-26T09:24:22.346Z,9.82
2022-12-26T09:25:22.378Z,9.87
2022-12-26T09:26:22.320Z,9.91
2022-12-26T09:27:22.316Z,9.92
2022-12-26T09:28:22.356Z,9.93
2022-12-26T09:29:22.366Z,9.94
2022-12-26T09:30:22.343Z,9.94
2022-12-26T09:31:22.357Z,9.93
2022-12-26T09:32:22.359Z,9.95
2022-12-26T09:33:22.368Z,9.97
2022-12-26T09:34:22.345Z,9.99
2022-12-26T09:35:22.350Z,10.02
2022-12-26T09:36:22.338Z,10.05
2022-12-26T09:37:22.338Z,10.05
2022-12-26T09:38:22.335Z,10.06
2022-12-26T09:39:22.390Z,10.06
2022-12-26T09:40:22.372Z,10.06
2022-12-26T09:41:22.343Z,10.07
2022-12-26T09:42:22.375Z,10.10
2022-12-26T09:43:22.350Z,10.09
2022-12-26T09:44:22.419Z,10.10
2022-12-26T09:45:22.362Z,10.11
2022-12-26T09:46:22.394Z,10.11
2022-12-26T09:47:22.379Z,10.12
2022-12-26T09:48:22.374Z,10.13
2022-12-26T09:49:22.394Z,10.14
2022-12-26T09:50:22.361Z,10.14
2022-12-26T09:51:22.368Z,10.15
2022-12-26T09:52:22.330Z,10.15
2022-12-26T09:53:22.352Z,10.17
2022-12-26T09:54:22.371Z,10.17
2022-12-26T09:55:22.384Z,10.19
2022-12-26T09:57:22.362Z,10.26
2022-12-26T09:58:22.376Z,10.31
2022-12-26T09:59:22.405Z,10.35
2022-12-26T10:00:22.401Z,10.41
2022-12-26T10:01:22.447Z,10.47
2022-12-26T10:02:22.570Z,10.51
2022-12-26T10:03:22.381Z,10.54
2022-12-26T10:04:28.565Z,10.59
2022-12-26T10:05:22.591Z,10.58
2022-12-26T10:06:22.381Z,10.58
2022-12-26T10:07:22.375Z,10.61
2022-12-26T10:08:22.367Z,10.64
2022-12-26T10:09:22.384Z,10.66
2022-12-26T10:10:22.376Z,10.69
2022-12-26T10:11:22.372Z,10.71
2022-12-26T10:12:22.427Z,10.77
2022-12-26T10:13:22.373Z,10.81
2022-12-26T10:14:22.433Z,10.83
2022-12-26T10:15:22.499Z,10.86
2022-12-26T10:16:22.410Z,10.88
2022-12-26T10:17:22.390Z,10.92
2022-12-26T10:18:22.397Z,10.96
2022-12-26T10:19:26.088Z,10.98
2022-12-26T10:20:22.416Z,11.01
2022-12-26T10:21:22.379Z,11.02
2022-12-26T10:22:22.420Z,11.04
2022-12-26T10:23:22.457Z,11.10
2022-12-26T10:24:22.396Z,11.13
2022-12-26T10:25:22.459Z,11.15
2022-12-26T10:26:22.393Z,11.17
2022-12-26T10:27:22.413Z,11.16
2022-12-26T10:28:22.409Z,11.18
2022-12-26T10:29:22.397Z,11.20
2022-12-26T10:30:22.439Z,11.20
2022-12-26T10:31:22.562Z,11.19
2022-12-26T10:32:27.709Z,11.19
2022-12-26T10:33:22.395Z,11.19
2022-12-26T10:34:22.404Z,11.19
2022-12-26T10:35:22.410Z,11.17
2022-12-26T10:36:22.426Z,11.15
2022-12-26T10:37:22.404Z,11.17
2022-12-26T10:38:25.809Z,11.18
2022-12-26T10:39:22.410Z,11.21
2022-12-26T10:40:22.453Z,11.25
2022-12-26T10:41:22.479Z,11.27
2022-12-26T10:42:22.410Z,11.30
2022-12-26T10:43:22.400Z,11.31
2022-12-26T10:44:27.397Z,11.32
2022-12-26T10:45:22.426Z,11.35
2022-12-26T10:46:22.451Z,11.36
2022-12-26T10:47:22.416Z,11.39
2022-12-26T10:48:22.442Z,11.41
2022-12-26T10:49:22.627Z,11.41
2022-12-26T10:50:27.139Z,11.40
2022-12-26T10:51:22.443Z,11.42
2022-12-26T10:52:22.446Z,11.45
2022-12-26T10:53:22.432Z,11.46
2022-12-26T10:54:22.435Z,11.47
2022-12-26T10:55:28.205Z,11.49
2022-12-26T10:56:22.454Z,11.46
2022-12-26T10:57:22.440Z,11.46
2022-12-26T10:58:22.438Z,11.46
2022-12-26T10:59:22.549Z,11.47
2022-12-26T11:00:22.466Z,11.46
2022-12-26T11:01:22.530Z,11.48
2022-12-26T11:02:22.600Z,11.47
2022-12-26T11:03:22.633Z,11.44
2022-12-26T11:04:44.618Z,11.47
2022-12-26T11:05:48.335Z,11.47
2022-12-26T11:06:22.492Z,11.48
2022-12-26T11:07:22.476Z,11.47
2022-12-26T11:08:22.472Z,11.48
2022-12-26T11:09:22.483Z,11.47
2022-12-26T11:10:22.515Z,11.48
2022-12-26T11:11:22.502Z,11.48
2022-12-26T11:12:22.521Z,11.48
2022-12-26T11:13:22.528Z,11.50
2022-12-26T11:14:22.530Z,11.51
2022-12-26T11:15:22.486Z,11.52
2022-12-26T11:16:22.526Z,11.52
2022-12-26T11:17:22.477Z,11.51
2022-12-26T11:18:22.497Z,11.53
2022-12-26T11:19:22.484Z,11.52
2022-12-26T11:20:22.535Z,11.54
2022-12-26T11:21:22.506Z,11.56
2022-12-26T11:22:22.493Z,11.58
2022-12-26T11:23:22.510Z,11.60
2022-12-26T11:24:22.469Z,11.62
2022-12-26T11:25:22.533Z,11.63
2022-12-26T11:26:22.526Z,11.63
2022-12-26T11:27:22.491Z,11.64
2022-12-26T11:28:22.511Z,11.63
2022-12-26T11:29:22.502Z,11.65
2022-12-26T11:30:22.537Z,11.67
2022-12-26T11:31:22.532Z,11.68
2022-12-26T11:32:22.483Z,11.67
2022-12-26T11:33:22.491Z,11.66
2022-12-26T11:34:22.503Z,11.64
2022-12-26T11:35:22.506Z,11.65
2022-12-26T11:36:22.518Z,11.64
2022-12-26T11:37:22.506Z,11.64
2022-12-26T11:38:22.518Z,11.65
2022-12-26T11:39:22.496Z,11.65
2022-12-26T11:40:22.521Z,11.64
2022-12-26T11:41:22.500Z,11.64
2022-12-26T11:42:22.516Z,11.62
2022-12-26T11:43:22.534Z,11.62
2022-12-26T11:44:22.531Z,11.61
2022-12-26T11:45:22.548Z,11.62
2022-12-26T11:46:22.545Z,11.61
2022-12-26T11:47:22.531Z,11.59
2022-12-26T11:48:22.540Z,11.58
2022-12-26T11:49:22.555Z,11.57
2022-12-26T11:50:22.568Z,11.55
2022-12-26T11:51:22.565Z,11.54
2022-12-26T11:52:22.556Z,11.53
2022-12-26T11:53:22.516Z,11.52
2022-12-26T11:54:22.512Z,11.53
2022-12-26T11:55:22.533Z,11.54
2022-12-26T11:56:22.525Z,11.56
2022-12-26T11:57:22.529Z,11.56
2022-12-26T11:58:22.531Z,11.55
2022-12-26T11:59:22.518Z,11.54
2022-12-26T12:00:22.530Z,11.54
2022-12-26T12:01:22.613Z,11.54
2022-12-26T12:02:22.587Z,11.55
2022-12-26T12:03:22.550Z,11.54
2022-12-26T12:04:22.555Z,11.53
2022-12-26T12:05:22.531Z,11.51
2022-12-26T12:06:22.523Z,11.45
2022-12-26T12:07:22.557Z,11.42
2022-12-26T12:08:22.534Z,11.37
2022-12-26T12:09:22.521Z,11.34
2022-12-26T12:10:22.560Z,11.31
2022-12-26T12:11:22.587Z,11.28
2022-12-26T12:12:22.553Z,11.26
2022-12-26T12:13:22.568Z,11.25
2022-12-26T12:14:22.595Z,11.27
2022-12-26T12:15:22.539Z,11.26
2022-12-26T12:16:22.608Z,11.27
2022-12-26T12:17:22.534Z,11.26
2022-12-26T12:18:22.598Z,11.24
2022-12-26T12:30:03.204Z,10.94
2022-12-26T12:31:03.142Z,10.93
2022-12-26T12:32:03.245Z,10.90
2022-12-26T12:33:03.169Z,10.90
2022-12-26T12:34:03.159Z,10.90
2022-12-26T12:35:03.204Z,10.90
2022-12-26T12:36:03.186Z,10.92
2022-12-26T12:37:03.193Z,10.92
2022-12-26T12:38:03.194Z,10.92
2022-12-26T12:39:03.202Z,10.94
2022-12-26T12:40:03.172Z,10.93
2022-12-26T12:41:03.210Z,10.95
2022-12-26T12:42:03.163Z,10.96
2022-12-26T12:43:03.165Z,10.96
2022-12-26T12:44:03.168Z,10.98
2022-12-26T12:45:03.183Z,10.98
2022-12-26T12:46:03.350Z,10.99
2022-12-26T12:47:03.169Z,10.99
2022-12-26T12:48:03.194Z,10.99
2022-12-26T12:49:03.258Z,10.98
2022-12-26T12:50:03.188Z,10.99
2022-12-26T12:51:03.183Z,10.97
2022-12-26T12:52:03.219Z,10.96
2022-12-26T12:53:03.204Z,10.95
2022-12-26T12:54:03.213Z,10.95
2022-12-26T12:55:03.237Z,10.94
2022-12-26T12:56:03.215Z,10.94
2022-12-26T12:57:03.191Z,10.93
2022-12-26T12:58:03.226Z,10.94
2022-12-26T12:59:03.196Z,10.96
2022-12-26T13:00:03.200Z,11.01
2022-12-26T13:01:03.242Z,11.02
2022-12-26T13:02:08.712Z,11.04
2022-12-26T13:03:03.305Z,11.06
2022-12-26T13:04:03.247Z,11.06
2022-12-26T13:05:03.231Z,11.06
2022-12-26T13:06:03.209Z,11.06
2022-12-26T13:07:03.202Z,11.04